createdAt,value
2016-08-28T00:01:46.064Z,21.16
2016-08-28T00:02:46.082Z,21.13
2016-08-28T00:03:46.106Z,21.16
2016-08-28T00:04:46.133Z,21.12
2016-08-28T00:05:46.178Z,21.1
2016-08-28T00:07:01.113Z,21.01
2016-08-28T00:08:01.195Z,20.95
2016-08-28T00:08:46.271Z,20.92
2016-08-28T00:09:46.280Z,20.98
2016-08-28T00:10:46.314Z,20.91
2016-08-28T00:11:46.347Z,20.92
2016-08-28T00:12:46.360Z,20.92
2016-08-28T00:13:46.386Z,20.87
2016-08-28T00:14:46.427Z,20.98
2016-08-28T00:15:46.450Z,20.97
2016-08-28T00:17:46.491Z,20.95
2016-08-28T00:18:46.551Z,20.97
2016-08-28T00:19:46.547Z,20.88
2016-08-28T00:20:46.579Z,20.89
2016-08-28T00:21:46.614Z,20.85
2016-08-28T00:22:46.648Z,20.82
2016-08-28T00:25:01.616Z,20.82
2016-08-28T00:26:46.764Z,20.69
2016-08-28T00:28:01.711Z,20.77
2016-08-28T00:28:46.870Z,20.8
2016-08-28T00:29:46.833Z,20.73
2016-08-28T00:30:46.852Z,20.66
2016-08-28T00:31:46.880Z,20.74
2016-08-28T00:32:46.904Z,20.77
2016-08-28T00:33:46.935Z,20.7
2016-08-28T00:34:46.971Z,20.72
2016-08-28T00:36:01.917Z,20.69
2016-08-28T00:36:47.037Z,20.61
2016-08-28T00:37:47.049Z,20.66
2016-08-28T00:38:47.083Z,20.62
2016-08-28T00:40:02.029Z,20.64
2016-08-28T00:41:02.050Z,20.5
2016-08-28T00:41:47.160Z,20.5
2016-08-28T00:43:47.211Z,20.48
2016-08-28T00:44:47.244Z,20.41
2016-08-28T00:45:47.278Z,20.52
2016-08-28T00:46:47.293Z,20.5
2016-08-28T00:48:47.347Z,20.38
2016-08-28T00:49:47.392Z,20.29
2016-08-28T00:50:47.405Z,20.35
2016-08-28T00:51:47.436Z,20.28
2016-08-28T00:52:47.455Z,20.28
2016-08-28T00:53:47.505Z,20.24
2016-08-28T00:55:02.437Z,20.2
2016-08-28T00:56:02.464Z,20.21
2016-08-28T00:56:47.571Z,20.2
2016-08-28T00:57:47.599Z,20.13
2016-08-28T00:58:47.645Z,20.16
2016-08-28T00:59:47.711Z,20.14
2016-08-28T01:00:47.674Z,20.1
2016-08-28T01:01:47.703Z,20.11
2016-08-28T01:03:47.776Z,20.11
2016-08-28T01:04:47.791Z,20.03
2016-08-28T01:05:47.811Z,20.01
2016-08-28T01:06:47.865Z,20.01
2016-08-28T01:08:02.797Z,19.96
2016-08-28T01:08:47.904Z,19.94
2016-08-28T01:09:47.924Z,19.88
2016-08-28T01:10:47.955Z,19.87
2016-08-28T01:11:47.982Z,19.84
2016-08-28T01:12:48.010Z,19.92
2016-08-28T01:14:02.975Z,19.87
2016-08-28T01:14:48.070Z,19.87
2016-08-28T01:15:48.115Z,19.87
2016-08-28T01:16:48.114Z,19.8
2016-08-28T01:17:48.164Z,19.87
2016-08-28T01:18:48.169Z,19.91
2016-08-28T01:20:03.125Z,19.92
2016-08-28T01:20:48.236Z,19.98
2016-08-28T01:21:48.264Z,19.83
2016-08-28T01:22:48.275Z,19.91
2016-08-28T01:24:03.233Z,19.91
2016-08-28T01:24:48.345Z,19.88
2016-08-28T01:25:48.355Z,19.95
2016-08-28T01:27:03.308Z,19.77
2016-08-28T01:27:48.422Z,19.74
2016-08-28T01:28:48.469Z,19.74
2016-08-28T01:30:48.497Z,19.65
2016-08-28T01:31:48.544Z,19.66
2016-08-28T01:32:48.579Z,19.66
2016-08-28T01:33:48.579Z,19.56
2016-08-28T01:34:48.605Z,19.54
2016-08-28T01:35:48.630Z,19.51
2016-08-28T01:36:48.665Z,19.51
2016-08-28T01:37:48.682Z,19.43
2016-08-28T01:38:48.722Z,19.43
2016-08-28T01:39:48.756Z,19.46
2016-08-28T01:40:49.477Z,19.48
2016-08-28T01:41:48.794Z,19.46
2016-08-28T01:43:03.742Z,19.48
2016-08-28T01:43:48.861Z,19.54
2016-08-28T01:44:48.880Z,19.51
2016-08-28T01:46:03.837Z,19.43
2016-08-28T01:46:48.950Z,19.33
2016-08-28T01:47:48.953Z,19.36
2016-08-28T01:48:48.979Z,19.31
2016-08-28T01:49:49.015Z,19.29
2016-08-28T01:50:49.047Z,19.32
2016-08-28T01:51:49.065Z,19.29
2016-08-28T01:52:49.106Z,19.32
2016-08-28T01:53:49.116Z,19.28
2016-08-28T01:54:49.165Z,19.29
2016-08-28T01:55:49.182Z,19.26
2016-08-28T01:57:49.244Z,19.19
2016-08-28T01:59:04.192Z,19.23
2016-08-28T01:59:49.286Z,19.19
2016-08-28T02:00:49.321Z,19.19
2016-08-28T02:01:49.335Z,19.19
2016-08-28T02:02:49.373Z,19.18
2016-08-28T02:03:49.392Z,19.21
2016-08-28T02:04:49.407Z,19.11
2016-08-28T02:05:49.449Z,19.21
2016-08-28T02:06:49.579Z,19.16
2016-08-28T02:07:49.492Z,19.16
2016-08-28T02:09:49.559Z,19.16
2016-08-28T02:11:04.502Z,19.14
2016-08-28T02:11:49.616Z,19.11
2016-08-28T02:12:49.639Z,19.14
2016-08-28T02:13:49.663Z,19.18
2016-08-28T02:15:04.627Z,19.11
2016-08-28T02:15:49.717Z,19.16
2016-08-28T02:16:49.760Z,19.14
2016-08-28T02:17:49.759Z,19.16
2016-08-28T02:18:49.816Z,19.06
2016-08-28T02:19:49.818Z,19.08
2016-08-28T02:20:49.864Z,19.13
2016-08-28T02:21:49.875Z,18.99
2016-08-28T02:22:49.909Z,19.04
2016-08-28T02:23:49.923Z,19.06
2016-08-28T02:25:49.979Z,19.06
2016-08-28T02:26:50.003Z,19.04
2016-08-28T02:27:50.038Z,19
2016-08-28T02:30:05.015Z,18.91
2016-08-28T02:30:50.825Z,19.02
2016-08-28T02:31:50.141Z,18.92
2016-08-28T02:33:50.201Z,18.87
2016-08-28T02:34:50.229Z,18.87
2016-08-28T02:35:50.261Z,18.85
2016-08-28T02:36:50.280Z,18.92
2016-08-28T02:37:50.298Z,18.95
2016-08-28T02:38:50.329Z,18.94
2016-08-28T02:39:50.372Z,18.91
2016-08-28T02:40:50.450Z,18.92
2016-08-28T02:41:50.419Z,18.98
2016-08-28T02:42:50.438Z,19.02
2016-08-28T02:43:50.471Z,18.91
2016-08-28T02:44:50.501Z,18.95
2016-08-28T02:45:50.533Z,18.88
2016-08-28T02:47:50.581Z,18.88
2016-08-28T02:48:50.616Z,18.8
2016-08-28T02:49:50.626Z,18.78
2016-08-28T02:50:50.656Z,18.81
2016-08-28T02:51:50.678Z,18.73
2016-08-28T02:52:50.734Z,18.78
2016-08-28T02:53:50.731Z,18.7
2016-08-28T02:54:50.770Z,18.73
2016-08-28T02:55:50.802Z,18.7
2016-08-28T02:57:50.838Z,18.72
2016-08-28T02:58:50.883Z,18.66
2016-08-28T02:59:50.892Z,18.73
2016-08-28T03:00:50.931Z,18.73
2016-08-28T03:02:05.878Z,18.62
2016-08-28T03:03:51.004Z,18.75
2016-08-28T03:04:51.036Z,18.73
2016-08-28T03:05:51.051Z,18.7
2016-08-28T03:06:51.078Z,18.69
2016-08-28T03:07:51.159Z,18.73
2016-08-28T03:08:51.129Z,18.8
2016-08-28T03:09:51.184Z,18.7
2016-08-28T03:10:51.197Z,18.7
2016-08-28T03:11:51.207Z,18.7
2016-08-28T03:12:51.255Z,18.7
2016-08-28T03:13:51.265Z,18.73
2016-08-28T03:14:51.321Z,18.72
2016-08-28T03:15:51.319Z,18.7
2016-08-28T03:17:06.267Z,18.65
2016-08-28T03:18:06.307Z,18.62
2016-08-28T03:18:51.407Z,18.72
2016-08-28T03:19:51.423Z,18.58
2016-08-28T03:20:51.464Z,18.55
2016-08-28T03:21:51.478Z,18.55
2016-08-28T03:23:06.438Z,18.54
2016-08-28T03:23:51.533Z,18.51
2016-08-28T03:24:51.553Z,18.51
2016-08-28T03:25:51.595Z,18.54
2016-08-28T03:26:51.626Z,18.57
2016-08-28T03:27:51.649Z,18.52
2016-08-28T03:28:51.682Z,18.58
2016-08-28T03:29:51.688Z,18.48
2016-08-28T03:31:51.737Z,18.42
2016-08-28T03:32:51.843Z,18.37
2016-08-28T03:34:06.737Z,18.39
2016-08-28T03:34:51.835Z,18.42
2016-08-28T03:35:51.869Z,18.48
2016-08-28T03:36:51.888Z,18.42
2016-08-28T03:37:51.908Z,18.41
2016-08-28T03:38:51.929Z,18.45
2016-08-28T03:40:06.894Z,18.41
2016-08-28T03:40:51.984Z,18.44
2016-08-28T03:41:52.010Z,18.35
2016-08-28T03:42:52.045Z,18.47
2016-08-28T03:43:52.067Z,18.42
2016-08-28T03:44:52.106Z,18.37
2016-08-28T03:45:52.113Z,18.29
2016-08-28T03:46:52.152Z,18.32
2016-08-28T03:47:52.178Z,18.27
2016-08-28T03:48:52.193Z,18.27
2016-08-28T03:50:07.159Z,18.33
2016-08-28T03:50:52.252Z,18.41
2016-08-28T03:51:52.272Z,18.45
2016-08-28T03:52:52.311Z,18.33
2016-08-28T03:53:52.324Z,18.3
2016-08-28T03:54:52.376Z,18.39
2016-08-28T03:55:52.382Z,18.35
2016-08-28T03:56:52.437Z,18.29
2016-08-28T03:57:52.426Z,18.26
2016-08-28T03:58:52.482Z,18.3
2016-08-28T03:59:52.488Z,18.3
2016-08-28T04:00:52.534Z,18.23
2016-08-28T04:01:52.541Z,18.23
2016-08-28T04:02:52.569Z,18.17
2016-08-28T04:03:52.594Z,18.14
2016-08-28T04:05:07.552Z,18.11
2016-08-28T04:06:52.686Z,18.18
2016-08-28T04:07:52.698Z,18.27
2016-08-28T04:08:52.724Z,18.27
2016-08-28T04:09:52.763Z,18.14
2016-08-28T04:10:52.780Z,18.15
2016-08-28T04:11:52.806Z,18.3
2016-08-28T04:12:52.831Z,18.26
2016-08-28T04:13:52.879Z,18.25
2016-08-28T04:14:52.897Z,18.32
2016-08-28T04:15:52.909Z,18.27
2016-08-28T04:16:52.934Z,18.27
2016-08-28T04:17:52.968Z,18.39
2016-08-28T04:18:52.997Z,18.29
2016-08-28T04:20:07.936Z,18.32
2016-08-28T04:20:53.046Z,18.36
2016-08-28T04:21:53.065Z,18.41
2016-08-28T04:22:53.093Z,18.42
2016-08-28T04:23:53.141Z,18.39
2016-08-28T04:24:53.193Z,18.3
2016-08-28T04:26:53.201Z,18.37
2016-08-28T04:27:53.229Z,18.32
2016-08-28T04:28:53.261Z,18.3
2016-08-28T04:29:53.290Z,18.25
2016-08-28T04:30:53.306Z,18.25
2016-08-28T04:31:53.379Z,18.23
2016-08-28T04:32:53.365Z,18.21
2016-08-28T04:34:08.308Z,18.3
2016-08-28T04:34:54.125Z,18.26
2016-08-28T04:35:53.434Z,18.26
2016-08-28T04:37:08.390Z,18.21
2016-08-28T04:37:53.492Z,18.25
2016-08-28T04:38:53.524Z,18.3
2016-08-28T04:40:08.482Z,18.33
2016-08-28T04:40:53.574Z,18.3
2016-08-28T04:42:08.526Z,18.27
2016-08-28T04:42:53.617Z,18.3
2016-08-28T04:43:53.642Z,18.41
2016-08-28T04:45:53.713Z,18.45
2016-08-28T04:46:53.719Z,18.58
2016-08-28T04:47:54.469Z,18.76
2016-08-28T04:48:53.785Z,19.16
2016-08-28T04:49:53.827Z,19.69
2016-08-28T04:51:08.757Z,20.48
2016-08-28T04:51:53.856Z,20.77
2016-08-28T04:53:08.814Z,21.34
2016-08-28T04:53:53.911Z,21.5
2016-08-28T04:54:53.955Z,21.91
2016-08-28T04:55:53.964Z,22.09
2016-08-28T04:56:54.015Z,22.58
2016-08-28T04:57:54.058Z,22.95
2016-08-28T04:58:54.315Z,23.16
2016-08-28T04:59:54.153Z,23.5
2016-08-28T05:00:54.111Z,23.91
2016-08-28T05:01:54.162Z,24.15
2016-08-28T05:02:54.170Z,24.45
2016-08-28T05:03:54.216Z,24.77
2016-08-28T05:04:54.229Z,25.06
2016-08-28T05:05:54.268Z,25.27
2016-08-28T05:06:54.299Z,25.45
2016-08-28T05:07:54.341Z,25.55
2016-08-28T05:09:09.275Z,25.61
2016-08-28T05:09:54.397Z,25.82
2016-08-28T05:10:54.419Z,25.75
2016-08-28T05:12:54.479Z,26.05
2016-08-28T05:13:54.509Z,26.39
2016-08-28T05:14:54.534Z,26.29
2016-08-28T05:15:54.570Z,26.21
2016-08-28T05:16:54.610Z,26.06
2016-08-28T05:17:54.647Z,25.38
2016-08-28T05:18:54.675Z,24.78
2016-08-28T05:19:54.701Z,24.27
2016-08-28T05:20:54.738Z,23.83
2016-08-28T05:21:54.765Z,23.33
2016-08-28T05:22:54.816Z,22.98
2016-08-28T05:23:54.819Z,22.61
2016-08-28T05:25:09.784Z,22.58
2016-08-28T05:25:54.898Z,22.57
2016-08-28T05:26:54.925Z,22.52
2016-08-28T05:28:09.885Z,22.33
2016-08-28T05:28:54.981Z,22.21
2016-08-28T05:29:55.720Z,22.02
2016-08-28T05:30:55.043Z,21.82
2016-08-28T05:31:55.085Z,21.71
2016-08-28T05:32:55.812Z,21.54
2016-08-28T05:33:55.136Z,21.5
2016-08-28T05:35:55.212Z,21.43
2016-08-28T05:36:55.219Z,21.43
2016-08-28T05:37:55.259Z,21.65
2016-08-28T05:38:55.275Z,22.05
2016-08-28T05:40:11.292Z,22.45
2016-08-28T05:42:10.296Z,22.46
2016-08-28T05:42:55.405Z,22.45
2016-08-28T05:43:55.433Z,22.42
2016-08-28T05:44:55.468Z,22.25
2016-08-28T05:45:55.488Z,22.12
2016-08-28T05:46:55.510Z,22.07
2016-08-28T05:47:55.541Z,22.06
2016-08-28T05:48:55.607Z,22.17
2016-08-28T05:49:55.605Z,22.33
2016-08-28T05:50:55.628Z,22.92
2016-08-28T05:51:55.723Z,23.38
2016-08-28T05:52:55.708Z,23.85
2016-08-28T05:53:55.723Z,24.43
2016-08-28T05:54:55.764Z,24.71
2016-08-28T05:56:10.710Z,25.17
2016-08-28T05:56:55.812Z,25.45
2016-08-28T05:57:55.854Z,25.97
2016-08-28T05:58:55.899Z,25.99
2016-08-28T05:59:55.909Z,26.37
2016-08-28T06:00:55.957Z,26.55
2016-08-28T06:01:56.031Z,26.73
2016-08-28T06:02:56.016Z,26.75
2016-08-28T06:03:56.053Z,26.88
2016-08-28T06:04:56.087Z,26.82
2016-08-28T06:06:56.167Z,27.14
2016-08-28T06:07:56.184Z,27.28
2016-08-28T06:08:56.244Z,27.29
2016-08-28T06:10:11.195Z,27.69
2016-08-28T06:10:56.286Z,27.82
2016-08-28T06:12:11.257Z,27.94
2016-08-28T06:12:56.353Z,28.12
2016-08-28T06:13:56.416Z,28.12
2016-08-28T06:14:56.427Z,28.52
2016-08-28T06:15:56.463Z,28.61
2016-08-28T06:17:11.431Z,29.12
2016-08-28T06:17:56.546Z,29.19
2016-08-28T06:18:56.562Z,29
2016-08-28T06:19:56.603Z,29.23
2016-08-28T06:20:56.635Z,28.92
2016-08-28T06:22:11.611Z,28.98
2016-08-28T06:22:56.735Z,29.3
2016-08-28T06:23:56.742Z,29.45
2016-08-28T06:24:57.506Z,29.36
2016-08-28T06:26:11.748Z,29.37
2016-08-28T06:28:11.816Z,29.89
2016-08-28T06:29:11.854Z,29.92
2016-08-28T06:29:57.010Z,30
2016-08-28T06:30:57.004Z,29.79
2016-08-28T06:31:57.060Z,29.57
2016-08-28T06:32:57.083Z,29.42
2016-08-28T06:34:57.160Z,29.3
2016-08-28T06:35:57.197Z,29.57
2016-08-28T06:36:57.224Z,29.79
2016-08-28T06:37:57.260Z,30.11
2016-08-28T06:38:57.303Z,30.46
2016-08-28T06:39:57.355Z,30.72
2016-08-28T06:40:57.364Z,30.55
2016-08-28T06:41:57.400Z,30.6
2016-08-28T06:42:57.447Z,30.92
2016-08-28T06:44:12.410Z,31.06
2016-08-28T06:45:12.444Z,30.91
2016-08-28T06:45:57.562Z,30.69
2016-08-28T06:46:57.589Z,30.38
2016-08-28T06:47:57.644Z,30
2016-08-28T06:48:57.667Z,29.87
2016-08-28T06:49:57.715Z,30.05
2016-08-28T06:50:57.743Z,30.11
2016-08-28T06:51:57.792Z,30.13
2016-08-28T06:53:12.749Z,30.26
2016-08-28T06:53:57.860Z,30.11
2016-08-28T06:54:57.904Z,29.97
2016-08-28T06:55:57.935Z,29.89
2016-08-28T06:56:57.961Z,29.83
2016-08-28T06:57:58.010Z,29.97
2016-08-28T06:58:58.040Z,30.02
2016-08-28T07:00:13.015Z,30.49
2016-08-28T07:01:13.038Z,30.77
2016-08-28T07:01:58.153Z,31.2
2016-08-28T07:02:58.197Z,31.41
2016-08-28T07:03:58.230Z,31.75
2016-08-28T07:04:58.298Z,31.76
2016-08-28T07:05:58.298Z,31.86
2016-08-28T07:06:58.401Z,31.99
2016-08-28T07:07:58.379Z,32.28
2016-08-28T07:09:58.452Z,32.65
2016-08-28T07:10:58.503Z,32.7
2016-08-28T07:11:58.551Z,32.92
2016-08-28T07:12:58.562Z,33.18
2016-08-28T07:13:58.607Z,33.19
2016-08-28T07:16:13.604Z,33.57
2016-08-28T07:16:58.723Z,33.76
2016-08-28T07:17:58.751Z,33.87
2016-08-28T07:18:58.790Z,33.41
2016-08-28T07:19:58.841Z,33.29
2016-08-28T07:20:58.882Z,33.21
2016-08-28T07:21:58.908Z,33.34
2016-08-28T07:22:58.973Z,33.42
2016-08-28T07:23:58.986Z,33.57
2016-08-28T07:24:59.045Z,33.65
2016-08-28T07:25:59.056Z,33.97
2016-08-28T07:26:59.121Z,34.24
2016-08-28T07:28:59.180Z,34.19
2016-08-28T07:29:59.215Z,33.94
2016-08-28T07:30:59.276Z,34.09
2016-08-28T07:31:59.297Z,34.3
2016-08-28T07:32:59.338Z,34.65
2016-08-28T07:33:59.369Z,34.22
2016-08-28T07:34:59.434Z,33.81
2016-08-28T07:35:59.461Z,33.59
2016-08-28T07:36:59.488Z,33.68
2016-08-28T07:37:59.541Z,34.03
2016-08-28T07:38:59.564Z,34.22
2016-08-28T07:39:59.600Z,34.4
2016-08-28T07:40:59.652Z,34.3
2016-08-28T07:41:59.680Z,34.09
2016-08-28T07:43:59.760Z,34.22
2016-08-28T07:45:14.723Z,34.32
2016-08-28T07:45:59.838Z,34.65
2016-08-28T07:47:14.794Z,34.75
2016-08-28T07:47:59.907Z,34.82
2016-08-28T07:48:59.952Z,34.88
2016-08-28T07:49:59.985Z,34.65
2016-08-28T07:51:00.021Z,34.49
2016-08-28T07:52:00.073Z,34.47
2016-08-28T07:53:00.100Z,34.53
2016-08-28T07:54:00.164Z,34.34
2016-08-28T07:55:00.176Z,34.35
2016-08-28T07:56:00.229Z,34.43
2016-08-28T07:57:00.247Z,34.62
2016-08-28T07:58:00.306Z,34.82
2016-08-28T07:59:00.343Z,34.96
2016-08-28T08:00:15.299Z,35.33
2016-08-28T08:01:00.402Z,34.99
2016-08-28T08:02:00.446Z,34.82
2016-08-28T08:03:15.515Z,34.91
2016-08-28T08:04:00.541Z,34.69
2016-08-28T08:05:00.577Z,34.73
2016-08-28T08:06:00.600Z,34.44
2016-08-28T08:07:00.638Z,34.02
2016-08-28T08:08:15.613Z,33.72
2016-08-28T08:09:00.715Z,33.78
2016-08-28T08:10:00.775Z,34.1
2016-08-28T08:11:00.788Z,34.42
2016-08-28T08:12:00.831Z,34.37
2016-08-28T08:13:00.877Z,34.78
2016-08-28T08:14:00.899Z,34.99
2016-08-28T08:15:00.975Z,34.91
2016-08-28T08:16:00.985Z,34.96
2016-08-28T08:17:01.019Z,35.23
2016-08-28T08:18:01.058Z,34.94
2016-08-28T08:19:16.034Z,35.03
2016-08-28T08:20:01.130Z,35.07
2016-08-28T08:22:01.214Z,34.44
2016-08-28T08:23:01.251Z,34.78
2016-08-28T08:24:01.282Z,35.14
2016-08-28T08:25:01.331Z,34.84
2016-08-28T08:26:01.361Z,34.97
2016-08-28T08:27:01.396Z,35.18
2016-08-28T08:28:01.435Z,35.43
2016-08-28T08:29:01.491Z,35.44
2016-08-28T08:30:01.506Z,35.02
2016-08-28T08:31:01.554Z,35.04
2016-08-28T08:32:01.594Z,34.85
2016-08-28T08:33:01.626Z,34.94
2016-08-28T08:34:01.666Z,35.09
2016-08-28T08:35:16.621Z,35.21
2016-08-28T08:36:01.741Z,35.59
2016-08-28T08:37:01.767Z,35.75
2016-08-28T08:38:01.815Z,35.93
2016-08-28T08:39:01.843Z,35.84
2016-08-28T08:40:16.824Z,35.85
2016-08-28T08:41:01.933Z,36.17
2016-08-28T08:42:01.962Z,36.07
2016-08-28T08:43:02.011Z,35.81
2016-08-28T08:44:02.031Z,35.81
2016-08-28T08:45:02.082Z,35.89
2016-08-28T08:46:02.112Z,35.94
2016-08-28T08:47:02.138Z,36.05
2016-08-28T08:48:02.196Z,36.47
2016-08-28T08:49:02.216Z,36.39
2016-08-28T08:50:17.191Z,36.27
2016-08-28T08:51:02.302Z,36.07
2016-08-28T08:52:02.328Z,36.17
2016-08-28T08:53:02.372Z,36.25
2016-08-28T08:55:02.470Z,35.9
2016-08-28T08:56:02.480Z,35.92
2016-08-28T08:58:02.556Z,36.15
2016-08-28T08:59:02.598Z,35.84
2016-08-28T09:00:02.622Z,35.97
2016-08-28T09:01:02.664Z,36.13
2016-08-28T09:02:02.731Z,36.17
2016-08-28T09:03:17.669Z,35.92
2016-08-28T09:04:02.798Z,35.8
2016-08-28T09:05:02.816Z,35.82
2016-08-28T09:06:17.782Z,36.01
2016-08-28T09:07:02.897Z,36.15
2016-08-28T09:08:02.927Z,36.15
2016-08-28T09:09:02.978Z,36.08
2016-08-28T09:10:02.995Z,36.09
2016-08-28T09:11:03.060Z,36
2016-08-28T09:12:03.085Z,35.62
2016-08-28T09:13:03.116Z,35.63
2016-08-28T09:14:03.201Z,36.12
2016-08-28T09:15:03.199Z,36.34
2016-08-28T09:17:03.257Z,36.16
2016-08-28T09:18:03.293Z,36.2
2016-08-28T09:19:03.344Z,36.35
2016-08-28T09:20:18.294Z,36.46
2016-08-28T09:21:03.399Z,36.64
2016-08-28T09:22:18.365Z,36.65
2016-08-28T09:24:03.537Z,36.47
2016-08-28T09:25:03.551Z,36.13
2016-08-28T09:27:03.622Z,36.49
2016-08-28T09:28:03.681Z,36.65
2016-08-28T09:29:03.707Z,36.95
2016-08-28T09:30:03.731Z,37.03
2016-08-28T09:31:03.771Z,36.83
2016-08-28T09:32:03.807Z,36.93
2016-08-28T09:33:03.853Z,37.03
2016-08-28T09:34:03.884Z,36.95
2016-08-28T09:35:03.930Z,37.05
2016-08-28T09:36:03.950Z,36.9
2016-08-28T09:37:03.993Z,36.9
2016-08-28T09:38:18.952Z,36.66
2016-08-28T09:39:04.078Z,36.8
2016-08-28T09:40:04.110Z,36.91
2016-08-28T09:41:04.134Z,36.84
2016-08-28T09:42:04.165Z,36.73
2016-08-28T09:43:04.227Z,36.72
2016-08-28T09:44:04.245Z,36.56
2016-08-28T09:45:04.289Z,36.72
2016-08-28T09:46:04.327Z,36.83
2016-08-28T09:47:04.348Z,36.81
2016-08-28T09:48:04.387Z,36.8
2016-08-28T09:49:04.441Z,36.91
2016-08-28T09:50:04.461Z,36.65
2016-08-28T09:51:04.514Z,36.85
2016-08-28T09:52:04.536Z,37.02
2016-08-28T09:53:04.564Z,37.18
2016-08-28T09:54:19.544Z,37.18
2016-08-28T09:55:19.565Z,36.9
2016-08-28T09:56:04.687Z,36.84
2016-08-28T09:57:04.720Z,36.94
2016-08-28T09:58:19.693Z,36.9
2016-08-28T10:00:04.829Z,36.71
2016-08-28T10:01:04.866Z,36.68
2016-08-28T10:02:04.898Z,36.85
2016-08-28T10:03:04.946Z,36.69
2016-08-28T10:04:04.966Z,36.62
2016-08-28T10:05:05.009Z,36.56
2016-08-28T10:06:05.033Z,36.41
2016-08-28T10:07:05.072Z,36.57
2016-08-28T10:09:05.161Z,36.71
2016-08-28T10:10:20.107Z,37.02
2016-08-28T10:11:05.240Z,37.15
2016-08-28T10:12:05.256Z,36.68
2016-08-28T10:13:05.287Z,36.44
2016-08-28T10:14:05.324Z,36.38
2016-08-28T10:15:05.378Z,36.44
2016-08-28T10:16:05.461Z,36.19
2016-08-28T10:17:05.444Z,36.17
2016-08-28T10:19:05.510Z,35.89
2016-08-28T10:20:05.542Z,35.52
2016-08-28T10:21:05.586Z,35.15
2016-08-28T10:22:05.634Z,34.82
2016-08-28T10:23:05.667Z,34.7
2016-08-28T10:24:05.695Z,34.78
2016-08-28T10:25:20.664Z,34.69
2016-08-28T10:26:06.459Z,34.7
2016-08-28T10:27:05.795Z,34.82
2016-08-28T10:28:05.834Z,34.78
2016-08-28T10:29:05.860Z,34.61
2016-08-28T10:30:05.908Z,34.64
2016-08-28T10:31:05.936Z,34.47
2016-08-28T10:33:06.004Z,34.37
2016-08-28T10:34:06.048Z,34.3
2016-08-28T10:35:06.077Z,34.34
2016-08-28T10:36:06.119Z,34.3
2016-08-28T10:37:06.160Z,34.21
2016-08-28T10:38:06.188Z,34.3
2016-08-28T10:39:06.240Z,34.28
2016-08-28T10:40:06.260Z,34.4
2016-08-28T10:41:06.287Z,34.25
2016-08-28T10:42:06.339Z,34.37
2016-08-28T10:43:06.364Z,34.47
2016-08-28T10:44:06.420Z,34.25
2016-08-28T10:45:06.433Z,34.19
2016-08-28T10:46:06.458Z,34.3
2016-08-28T10:47:06.513Z,34.64
2016-08-28T10:48:06.539Z,34.54
2016-08-28T10:49:06.562Z,34.49
2016-08-28T10:50:06.614Z,34.37
2016-08-28T10:51:06.645Z,34.4
2016-08-28T10:52:06.682Z,34.32
2016-08-28T10:53:06.738Z,34.42
2016-08-28T10:56:06.818Z,34.62
2016-08-28T10:57:21.771Z,34.62
2016-08-28T10:58:06.900Z,34.69
2016-08-28T10:59:06.913Z,34.61
2016-08-28T11:00:06.946Z,34.54
2016-08-28T11:01:06.991Z,34.72
2016-08-28T11:02:07.023Z,34.87
2016-08-28T11:03:07.054Z,34.87
2016-08-28T11:04:07.092Z,35.04
2016-08-28T11:05:07.145Z,34.87
2016-08-28T11:06:07.158Z,34.78
2016-08-28T11:07:07.199Z,34.53
2016-08-28T11:08:07.235Z,34.56
2016-08-28T11:09:07.256Z,34.72
2016-08-28T11:10:07.313Z,34.65
2016-08-28T11:11:07.334Z,34.89
2016-08-28T11:12:07.379Z,34.88
2016-08-28T11:13:22.328Z,34.92
2016-08-28T11:14:07.443Z,34.96
2016-08-28T11:15:07.483Z,34.99
2016-08-28T11:16:07.519Z,35
2016-08-28T11:17:07.542Z,35.06
2016-08-28T11:18:22.509Z,34.85
2016-08-28T11:19:07.605Z,34.92
2016-08-28T11:20:08.332Z,34.84
2016-08-28T11:21:07.692Z,34.81
2016-08-28T11:22:07.721Z,34.88
2016-08-28T11:23:07.751Z,34.84
2016-08-28T11:25:07.823Z,34.91
2016-08-28T11:26:22.776Z,34.89
2016-08-28T11:27:07.898Z,34.94
2016-08-28T11:28:07.942Z,35.02
2016-08-28T11:29:22.884Z,35.1
2016-08-28T11:30:07.987Z,35.15
2016-08-28T11:31:08.044Z,35.26
2016-08-28T11:32:08.051Z,35.23
2016-08-28T11:33:23.029Z,35.26
2016-08-28T11:34:08.122Z,35.29
2016-08-28T11:35:08.159Z,35.25
2016-08-28T11:36:08.193Z,35.34
2016-08-28T11:37:08.241Z,35.4
2016-08-28T11:38:08.254Z,35.33
2016-08-28T11:39:08.308Z,35.43
2016-08-28T11:40:08.340Z,35.5
2016-08-28T11:41:08.362Z,35.5
2016-08-28T11:42:08.413Z,35.5
2016-08-28T11:43:08.426Z,35.33
2016-08-28T11:44:08.491Z,35.15
2016-08-28T11:45:23.431Z,35.33
2016-08-28T11:46:08.545Z,35.43
2016-08-28T11:47:08.571Z,35.34
2016-08-28T11:48:08.603Z,35.38
2016-08-28T11:50:08.680Z,35.45
2016-08-28T11:51:08.714Z,35.31
2016-08-28T11:52:08.747Z,35.31
2016-08-28T11:53:08.788Z,35.44
2016-08-28T11:54:08.810Z,35.5
2016-08-28T11:55:08.845Z,35.4
2016-08-28T11:56:08.879Z,35.41
2016-08-28T11:57:08.913Z,35.44
2016-08-28T11:58:08.951Z,35.41
2016-08-28T11:59:08.993Z,35.33
2016-08-28T12:00:23.946Z,35.37
2016-08-28T12:01:09.067Z,35.31
2016-08-28T12:02:24.010Z,35.26
2016-08-28T12:04:09.844Z,35.09
2016-08-28T12:05:09.186Z,35.03
2016-08-28T12:06:09.219Z,34.99
2016-08-28T12:07:09.255Z,34.85
2016-08-28T12:08:09.315Z,34.91
2016-08-28T12:09:09.326Z,34.78
2016-08-28T12:10:09.354Z,34.91
2016-08-28T12:11:09.397Z,34.85
2016-08-28T12:12:09.446Z,34.89
2016-08-28T12:13:24.391Z,35.06
2016-08-28T12:14:09.574Z,35.18
2016-08-28T12:15:09.554Z,35.1
2016-08-28T12:16:09.570Z,34.97
2016-08-28T12:17:09.602Z,35.07
2016-08-28T12:18:09.630Z,35.11
2016-08-28T12:19:24.604Z,35.23
2016-08-28T12:20:09.750Z,35.18
2016-08-28T12:21:09.800Z,35.14
2016-08-28T12:22:09.794Z,35.26
2016-08-28T12:23:09.812Z,35.29
2016-08-28T12:24:09.846Z,35.33
2016-08-28T12:25:09.873Z,35.29
2016-08-28T12:26:09.903Z,35.38
2016-08-28T12:27:09.962Z,35.47
2016-08-28T12:28:09.976Z,35.44
2016-08-28T12:30:10.037Z,35.44
2016-08-28T12:31:10.077Z,35.37
2016-08-28T12:32:25.034Z,35.55
2016-08-28T12:33:10.147Z,35.52
2016-08-28T12:34:10.202Z,35.48
2016-08-28T12:35:10.217Z,35.56
2016-08-28T12:36:10.255Z,35.59
2016-08-28T12:38:10.319Z,35.62
2016-08-28T12:39:10.360Z,35.62
2016-08-28T12:40:10.388Z,35.6
2016-08-28T12:41:10.428Z,35.63
2016-08-28T12:42:10.459Z,35.56
2016-08-28T12:43:10.496Z,35.6
2016-08-28T12:44:10.521Z,35.62
2016-08-28T12:45:10.584Z,35.62
2016-08-28T12:46:10.598Z,35.65
2016-08-28T12:47:10.625Z,35.55
2016-08-28T12:48:25.587Z,35.58
2016-08-28T12:49:10.695Z,35.62
2016-08-28T12:50:10.749Z,35.63
2016-08-28T12:51:10.774Z,35.62
2016-08-28T12:52:10.814Z,35.53
2016-08-28T12:53:10.859Z,35.55
2016-08-28T12:54:10.865Z,35.66
2016-08-28T12:56:10.939Z,35.63
2016-08-28T12:57:10.962Z,35.58
2016-08-28T12:58:11.021Z,35.62
2016-08-28T13:00:11.072Z,35.52
2016-08-28T13:01:11.106Z,35.45
2016-08-28T13:02:11.151Z,35.44
2016-08-28T13:03:11.170Z,35.48
2016-08-28T13:04:26.139Z,35.59
2016-08-28T13:05:11.233Z,35.65
2016-08-28T13:06:11.972Z,35.82
2016-08-28T13:07:11.307Z,35.97
2016-08-28T13:08:11.371Z,36.13
2016-08-28T13:09:11.378Z,36.08
2016-08-28T13:10:11.410Z,36.17
2016-08-28T13:11:11.453Z,36.27
2016-08-28T13:12:11.478Z,36.22
2016-08-28T13:13:11.508Z,36.2
2016-08-28T13:14:11.548Z,36.29
2016-08-28T13:15:11.592Z,36.44
2016-08-28T13:16:11.824Z,36.5
2016-08-28T13:17:11.668Z,36.59
2016-08-28T13:18:11.687Z,36.56
2016-08-28T13:19:11.741Z,36.65
2016-08-28T13:20:26.681Z,36.54
2016-08-28T13:22:11.830Z,36.54
2016-08-28T13:23:11.870Z,36.56
2016-08-28T13:25:11.940Z,36.57
2016-08-28T13:26:11.964Z,36.5
2016-08-28T13:27:11.991Z,36.51
2016-08-28T13:28:12.026Z,36.41
2016-08-28T13:29:12.071Z,36.2
2016-08-28T13:30:12.124Z,36.34
2016-08-28T13:31:12.134Z,36.29
2016-08-28T13:32:12.159Z,36.19
2016-08-28T13:33:12.201Z,36.32
2016-08-28T13:34:12.245Z,36.32
2016-08-28T13:35:27.198Z,36.17
2016-08-28T13:36:12.320Z,36.12
2016-08-28T13:37:12.348Z,36.19
2016-08-28T13:38:12.381Z,36.2
2016-08-28T13:39:12.409Z,36.17
2016-08-28T13:40:12.445Z,36.22
2016-08-28T13:41:12.482Z,36.07
2016-08-28T13:42:12.509Z,36.01
2016-08-28T13:43:12.559Z,35.94
2016-08-28T13:44:12.578Z,36.09
2016-08-28T13:45:12.639Z,36.17
2016-08-28T13:46:12.648Z,36.09
2016-08-28T13:47:12.685Z,36.01